Time;durP1;ratioP1;P1;durP2;ratioP2;P2;SDS_P1;SDS_P2;PMS_P1;PMS_P2;Temp;Humidity;BMP_temperature;BMP_pressure;BME280_temperature;BME280_humidity;BME280_pressure;Samples;Min_cycle;Max_cycle;Signal;HPM_P1;HPM_P2
2022/11/03 00:01:43;;;;;;;16.60;4.03;;;13.30;99.90;;;;;;4881587;29;20056;-61
2022/11/03 00:04:12;;;;;;;13.40;3.83;;;13.30;99.90;;;;;;4863336;29;20489;-62
2022/11/03 00:06:39;;;;;;;14.52;4.07;;;13.30;99.90;;;;;;4849681;29;20065;-61
2022/11/03 00:09:08;;;;;;;12.60;3.92;;;13.20;99.90;;;;;;4887686;29;20056;-61
2022/11/03 00:11:36;;;;;;;12.48;3.65;;;13.10;99.90;;;;;;4848244;29;20381;-61
2022/11/03 00:14:03;;;;;;;12.50;3.17;;;13.10;99.90;;;;;;4864428;29;20438;-62
2022/11/03 00:16:30;;;;;;;8.68;2.42;;;13.10;99.90;;;;;;4878457;29;20702;-61
2022/11/03 00:18:57;;;;;;;6.60;2.40;;;13.00;99.90;;;;;;4862820;29;20065;-61
2022/11/03 00:21:24;;;;;;;7.38;2.30;;;12.90;99.90;;;;;;4862806;29;20502;-64
2022/11/03 00:23:51;;;;;;;10.02;2.78;;;12.80;99.90;;;;;;4880505;29;20061;-61
2022/11/03 00:26:22;;;;;;;10.45;2.92;;;12.80;99.90;;;;;;4879847;29;20052;-63
2022/11/03 00:28:53;;;;;;;7.32;3.17;;;12.80;99.90;;;;;;4861488;29;20156;-61
2022/11/03 00:31:24;;;;;;;5.95;2.25;;;12.70;99.90;;;;;;4862397;29;20057;-61
2022/11/03 00:33:52;;;;;;;9.32;2.47;;;12.70;99.90;;;;;;4880589;29;20052;-61
2022/11/03 00:36:23;;;;;;;10.60;4.68;;;12.60;99.90;;;;;;4877613;29;20057;-61
2022/11/03 00:38:50;;;;;;;8.95;3.58;;;12.60;99.90;;;;;;4875108;29;20048;-61
2022/11/03 00:41:19;;;;;;;7.20;3.72;;;12.60;99.90;;;;;;4851117;29;20501;-61
2022/11/03 00:43:46;;;;;;;9.52;4.57;;;12.50;99.90;;;;;;4883060;29;20117;-61
2022/11/03 00:46:13;;;;;;;8.07;3.47;;;12.50;99.90;;;;;;4862355;29;20045;-61
2022/11/03 00:48:40;;;;;;;8.75;2.88;;;12.40;99.90;;;;;;4862787;29;20057;-61
2022/11/03 00:51:22;;;;;;;8.90;3.40;;;12.40;99.90;;;;;;4880497;29;20497;-60
2022/11/03 00:53:53;;;;;;;7.38;2.10;;;12.30;99.90;;;;;;4878971;29;20048;-61
2022/11/03 00:56:23;;;;;;;4.82;2.25;;;12.30;99.90;;;;;;4848169;29;20053;-61
2022/11/03 00:58:51;;;;;;;5.60;1.90;;;12.30;99.90;;;;;;4879115;29;20052;-61
2022/11/03 01:01:22;;;;;;;4.95;1.35;;;12.20;99.90;;;;;;4861932;29;20855;-61
2022/11/03 01:06:51;;;;;;;3.88;1.40;;;12.20;99.90;;;;;;4876465;29;20084;-61
2022/11/03 01:09:24;;;;;;;4.15;1.50;;;12.10;99.90;;;;;;4864885;29;20044;-61
2022/11/03 01:11:58;;;;;;;3.08;1.55;;;12.10;99.90;;;;;;4863040;29;20045;-61
2022/11/03 01:14:34;;;;;;;6.70;1.58;;;12.10;99.90;;;;;;4865592;29;20450;-61
2022/11/03 01:17:03;;;;;;;3.05;1.30;;;12.20;99.90;;;;;;4860468;29;20048;-63
2022/11/03 01:19:30;;;;;;;3.42;1.45;;;12.10;99.90;;;;;;4861568;29;20494;-62
2022/11/03 01:21:57;;;;;;;2.10;1.00;;;12.20;99.90;;;;;;4891103;29;20060;-61
2022/11/03 01:24:24;;;;;;;3.75;1.00;;;12.10;99.90;;;;;;4877293;29;20041;-61
2022/11/03 01:26:51;;;;;;;2.03;1.00;;;12.10;99.90;;;;;;4862015;29;20045;-64
2022/11/03 01:29:18;;;;;;;2.72;1.35;;;12.20;99.90;;;;;;4877304;29;20382;-61
2022/11/03 01:31:44;;;;;;;3.15;1.35;;;12.20;99.90;;;;;;4876839;29;20052;-61
2022/11/03 01:34:14;;;;;;;2.38;1.35;;;12.20;99.90;;;;;;4881144;29;20112;-61
2022/11/03 01:36:41;;;;;;;2.45;0.90;;;12.20;99.90;;;;;;4828456;29;20077;-61
2022/11/03 01:39:12;;;;;;;2.85;1.55;;;12.20;99.90;;;;;;4883796;29;20105;-61
2022/11/03 01:41:39;;;;;;;2.67;0.88;;;12.20;99.90;;;;;;4877512;29;20049;-61
2022/11/03 01:44:06;;;;;;;4.25;1.15;;;12.20;99.90;;;;;;4876959;29;20045;-61
2022/11/03 01:46:59;;;;;;;3.08;1.45;;;12.20;99.90;;;;;;4881941;29;20051;-60
2022/11/03 01:49:26;;;;;;;3.40;1.40;;;12.20;99.90;;;;;;4846845;29;20408;-61
2022/11/03 01:52:05;;;;;;;5.15;1.38;;;12.20;99.90;;;;;;4877550;29;20052;-61
2022/11/03 01:54:32;;;;;;;1.00;0.60;;;12.20;99.90;;;;;;4846107;29;20057;-62
2022/11/03 01:56:59;;;;;;;2.30;1.02;;;12.20;99.90;;;;;;4854216;29;20477;-63
2022/11/03 01:59:26;;;;;;;3.38;0.82;;;12.20;99.90;;;;;;4881518;29;20565;-62
2022/11/03 02:01:53;;;;;;;2.15;0.90;;;12.20;99.90;;;;;;4878288;29;20053;-61
2022/11/03 02:04:26;;;;;;;1.92;0.82;;;12.20;99.90;;;;;;4876009;29;20045;-60
2022/11/03 02:07:00;;;;;;;2.05;0.90;;;12.20;99.90;;;;;;4882976;29;20108;-61
2022/11/03 02:09:27;;;;;;;2.50;0.85;;;12.20;99.90;;;;;;4861589;29;20060;-62
2022/11/03 02:12:06;;;;;;;2.28;0.70;;;12.20;99.90;;;;;;4861437;29;20561;-60
2022/11/03 02:14:42;;;;;;;3.43;1.10;;;12.20;99.90;;;;;;4863117;29;20097;-61
2022/11/03 02:17:11;;;;;;;4.15;1.08;;;12.30;99.90;;;;;;4845812;29;20508;-61
2022/11/03 02:19:48;;;;;;;4.03;1.10;;;12.30;99.90;;;;;;4861523;29;20434;-61
2022/11/03 02:22:18;;;;;;;3.95;1.48;;;12.30;99.90;;;;;;4877193;29;20097;-61
2022/11/03 02:24:57;;;;;;;2.33;0.88;;;12.30;99.90;;;;;;4861769;29;20114;-61
2022/11/03 02:27:24;;;;;;;2.75;0.88;;;12.30;99.90;;;;;;4875528;29;20072;-60
2022/11/03 02:29:50;;;;;;;3.13;1.20;;;12.30;99.90;;;;;;4861255;29;20105;-61
2022/11/03 02:32:21;;;;;;;5.50;0.95;;;12.30;99.90;;;;;;4861455;29;20409;-62
2022/11/03 02:35:04;;;;;;;3.65;1.00;;;12.30;99.90;;;;;;4862918;29;20117;-62
2022/11/03 02:37:35;;;;;;;4.22;1.15;;;12.20;99.90;;;;;;4847355;29;20056;-61
2022/11/03 02:40:04;;;;;;;4.15;1.02;;;12.20;99.90;;;;;;4860232;29;20489;-61
2022/11/03 02:42:31;;;;;;;3.58;1.95;;;12.20;99.90;;;;;;4860893;29;20514;-61
2022/11/03 02:44:59;;;;;;;6.43;1.13;;;12.20;99.90;;;;;;4861538;29;20096;-61
2022/11/03 02:47:26;;;;;;;4.85;1.20;;;12.20;99.90;;;;;;4860738;29;20053;-61
2022/11/03 02:49:53;;;;;;;2.38;1.10;;;12.20;99.90;;;;;;4861144;29;20053;-61
2022/11/03 02:52:47;;;;;;;4.80;1.20;;;12.20;99.90;;;;;;4858223;29;20076;-61
2022/11/03 02:55:17;;;;;;;4.57;1.77;;;12.30;99.90;;;;;;4849446;29;20045;-61
2022/11/03 02:57:52;;;;;;;;;;;12.30;99.90;;;;;;4883181;29;20557;-61
2022/11/03 03:00:19;;;;;;;5.05;1.67;;;12.30;99.90;;;;;;4865732;29;19935;-61
2022/11/03 03:02:49;;;;;;;8.88;2.60;;;12.30;99.90;;;;;;4852107;29;20116;-60
2022/11/03 03:05:16;;;;;;;10.43;2.63;;;12.30;99.90;;;;;;4882755;29;20057;-60
2022/11/03 03:07:45;;;;;;;7.30;2.42;;;12.30;99.90;;;;;;4866333;29;20056;-63
2022/11/03 03:10:17;;;;;;;5.45;2.35;;;12.40;99.90;;;;;;4865826;29;20053;-64
2022/11/03 03:12:51;;;;;;;8.25;2.35;;;12.40;99.90;;;;;;4866060;29;20816;-60
2022/11/03 03:15:19;;;;;;;7.07;1.90;;;12.40;99.90;;;;;;4872582;29;20512;-61
2022/11/03 03:17:55;;;;;;;10.00;2.83;;;12.40;99.90;;;;;;4868824;29;20084;-60
2022/11/03 03:20:33;;;;;;;14.25;2.80;;;12.50;99.90;;;;;;4854862;29;20049;-60
2022/11/03 03:23:14;;;;;;;10.90;2.85;;;12.50;99.90;;;;;;4870473;29;20060;-60
2022/11/03 03:26:06;;;;;;;9.15;3.47;;;12.50;99.90;;;;;;4849093;29;20129;-60
2022/11/03 03:28:39;;;;;;;14.77;3.65;;;12.50;99.90;;;;;;4866112;29;20073;-61
2022/11/03 03:31:08;;;;;;;12.25;3.38;;;12.50;99.90;;;;;;4866002;29;20128;-60
2022/11/03 03:33:35;;;;;;;10.37;3.37;;;12.50;99.90;;;;;;4881700;29;20045;-60
2022/11/03 03:36:07;;;;;;;13.52;4.18;;;12.50;99.90;;;;;;4855934;29;20055;-60
2022/11/03 03:38:43;;;;;;;16.98;3.80;;;12.60;99.90;;;;;;4866569;29;20052;-61
2022/11/03 03:41:11;;;;;;;13.77;3.00;;;12.60;99.90;;;;;;4875235;29;20472;-61
2022/11/03 03:43:38;;;;;;;10.75;2.78;;;12.60;99.90;;;;;;4858928;29;20116;-62
2022/11/03 03:46:07;;;;;;;9.43;3.58;;;12.50;99.90;;;;;;4877774;29;20050;-60
2022/11/03 03:48:34;;;;;;;14.02;2.97;;;12.60;99.90;;;;;;4846807;29;20105;-61
2022/11/03 03:51:00;;;;;;;10.00;3.25;;;12.60;99.90;;;;;;4865281;29;20041;-61
2022/11/03 03:53:28;;;;;;;10.88;3.05;;;12.60;99.90;;;;;;4859087;29;20100;-60
2022/11/03 03:55:55;;;;;;;10.02;3.35;;;12.60;99.90;;;;;;4863840;29;20037;-61
2022/11/03 03:58:22;;;;;;;10.35;3.25;;;12.60;99.90;;;;;;4851234;29;20492;-61
2022/11/03 04:00:49;;;;;;;11.65;2.72;;;12.60;99.90;;;;;;4881279;29;20127;-60
2022/11/03 04:03:20;;;;;;;7.68;2.88;;;12.60;99.90;;;;;;4880840;29;20571;-60
2022/11/03 04:05:47;;;;;;;7.60;2.28;;;12.60;99.90;;;;;;4862995;29;20061;-60
2022/11/03 04:08:14;;;;;;;8.05;2.17;;;12.60;99.90;;;;;;4887136;29;20104;-60
2022/11/03 04:22:15;;;;;;;8.35;2.63;;;12.60;99.90;;;;;;4863390;29;20419;-60
2022/11/03 04:24:34;;;;;;;7.55;2.72;;;12.80;99.90;;;;;;4887000;29;20108;-61
2022/11/03 04:27:17;;;;;;;5.65;1.92;;;12.80;99.90;;;;;;4847180;29;20562;-61
2022/11/03 04:29:44;;;;;;;8.82;2.97;;;12.80;99.90;;;;;;4847277;29;20056;-60
2022/11/03 04:32:15;;;;;;;6.13;2.10;;;12.80;99.90;;;;;;4862591;29;20053;-64
2022/11/03 04:34:44;;;;;;;193.60;163.90;;;12.90;99.90;;;;;;4856180;29;20108;-60
2022/11/03 04:37:11;;;;;;;44.28;34.50;;;12.90;99.90;;;;;;4862108;29;20054;-63
2022/11/03 04:39:38;;;;;;;12.05;4.65;;;12.90;99.90;;;;;;4855426;29;20117;-61
2022/11/03 04:42:20;;;;;;;4.72;2.17;;;13.00;99.90;;;;;;4843302;29;20049;-60
2022/11/03 04:44:47;;;;;;;9.05;2.78;;;13.00;99.90;;;;;;4877588;29;20089;-60
2022/11/03 04:47:15;;;;;;;7.88;2.10;;;12.90;99.90;;;;;;4878487;29;20445;-60
2022/11/03 04:49:43;;;;;;;5.50;1.75;;;12.90;99.90;;;;;;4861866;29;20087;-60
2022/11/03 04:52:18;;;;;;;6.75;2.03;;;12.90;99.90;;;;;;4852023;29;20084;-61
2022/11/03 04:54:46;;;;;;;3.80;1.70;;;12.90;99.90;;;;;;4877047;29;20142;-60
2022/11/03 04:57:14;;;;;;;6.72;1.65;;;12.90;99.90;;;;;;4867068;29;21430;-60
2022/11/03 04:59:44;;;;;;;8.15;2.05;;;12.90;99.90;;;;;;4882577;29;20164;-60
2022/11/03 05:02:12;;;;;;;;;;;12.90;99.90;;;;;;4872697;29;20585;-62
2022/11/03 05:04:39;;;;;;;3.67;1.45;;;12.90;99.90;;;;;;4884401;29;19928;-60
2022/11/03 05:07:21;;;;;;;7.40;2.53;;;12.90;99.90;;;;;;4883781;29;20057;-60
2022/11/03 05:09:48;;;;;;;7.07;2.45;;;12.90;99.90;;;;;;4862128;29;20100;-60
2022/11/03 05:12:15;;;;;;;8.43;1.95;;;12.90;99.90;;;;;;4886026;29;20048;-60
2022/11/03 05:14:42;;;;;;;9.50;2.72;;;12.90;99.90;;;;;;4882800;29;20060;-60
2022/11/03 05:17:23;;;;;;;6.72;2.05;;;12.90;99.90;;;;;;4885949;29;20112;-60
2022/11/03 05:19:53;;;;;;;5.85;1.85;;;12.90;99.90;;;;;;4860790;29;20083;-61
2022/11/03 05:22:21;;;;;;;11.50;2.20;;;12.90;99.90;;;;;;4879245;29;20097;-62
2022/11/03 05:24:50;;;;;;;6.88;2.20;;;13.00;99.90;;;;;;4873969;29;20501;-60
2022/11/03 05:27:20;;;;;;;8.25;2.08;;;13.00;99.90;;;;;;4877247;29;20128;-62
2022/11/03 05:29:47;;;;;;;7.82;2.10;;;13.00;99.90;;;;;;4863321;29;20199;-60
2022/11/03 05:32:16;;;;;;;3.33;1.40;;;13.00;99.90;;;;;;4875177;29;20450;-61
2022/11/03 05:34:45;;;;;;;7.80;1.98;;;13.00;99.90;;;;;;4861665;29;20081;-61
2022/11/03 05:37:20;;;;;;;5.95;1.55;;;13.00;99.90;;;;;;4876631;29;20072;-61
2022/11/03 05:39:57;;;;;;;6.15;2.17;;;13.00;99.90;;;;;;4861383;29;20049;-61
2022/11/03 05:42:41;;;;;;;10.75;2.95;;;13.00;99.90;;;;;;4876859;29;20485;-61
2022/11/03 05:45:30;;;;;;;5.65;1.58;;;13.10;99.90;;;;;;4877651;29;20417;-60
2022/11/03 05:47:57;;;;;;;9.88;2.20;;;13.10;99.90;;;;;;4882793;29;20080;-60
2022/11/03 05:50:25;;;;;;;6.13;2.20;;;13.10;99.90;;;;;;4861111;29;20073;-60
2022/11/03 05:53:40;;;;;;;9.35;2.92;;;13.10;99.90;;;;;;4848663;29;20053;-62
2022/11/03 05:56:17;;;;;;;8.63;3.22;;;13.10;99.90;;;;;;4865025;29;20104;-61
2022/11/03 05:58:43;;;;;;;9.68;2.70;;;13.10;99.90;;;;;;4861050;29;20049;-60
2022/11/03 06:01:31;;;;;;;7.60;2.33;;;13.20;99.90;;;;;;4860541;29;20064;-61
2022/11/03 06:04:17;;;;;;;10.88;2.97;;;13.20;99.90;;;;;;4860828;29;20071;-60
2022/11/03 06:06:55;;;;;;;9.95;3.08;;;13.20;99.90;;;;;;4866943;29;20531;-62
2022/11/03 06:09:22;;;;;;;12.38;3.45;;;13.20;99.90;;;;;;4845711;29;20092;-61
2022/11/03 06:11:50;;;;;;;15.63;3.10;;;13.20;99.90;;;;;;4861216;29;20112;-60
2022/11/03 06:14:19;;;;;;;13.63;4.20;;;13.20;99.90;;;;;;4862689;29;20490;-60
2022/11/03 06:17:00;;;;;;;13.90;3.65;;;13.30;99.90;;;;;;4871813;29;20392;-64
2022/11/03 06:19:41;;;;;;;12.77;3.55;;;13.30;99.90;;;;;;4861131;29;20117;-60
2022/11/03 06:22:11;;;;;;;16.27;4.18;;;13.30;99.90;;;;;;4860142;29;20060;-61
2022/11/03 06:24:38;;;;;;;15.23;3.75;;;13.20;99.90;;;;;;4877646;29;20113;-61
2022/11/03 06:27:07;;;;;;;13.38;3.22;;;13.30;99.90;;;;;;4880894;29;20048;-61
2022/11/03 06:29:34;;;;;;;7.90;2.30;;;13.30;99.90;;;;;;4859509;29;20557;-61
2022/11/03 06:32:00;;;;;;;8.18;2.35;;;13.20;99.90;;;;;;4875933;29;20045;-61
2022/11/03 06:34:46;;;;;;;4.13;1.63;;;13.10;99.90;;;;;;4875621;29;20067;-61
2022/11/03 06:37:15;;;;;;;3.20;1.30;;;13.00;99.90;;;;;;4860021;29;20089;-61
2022/11/03 06:39:42;;;;;;;3.83;0.90;;;12.90;99.90;;;;;;4869901;29;20079;-61
2022/11/03 06:42:13;;;;;;;3.05;1.15;;;12.80;99.90;;;;;;4847646;29;20085;-61
2022/11/03 06:44:42;;;;;;;3.75;0.95;;;12.70;99.90;;;;;;4864999;29;20076;-61
2022/11/03 06:47:22;;;;;;;3.97;0.97;;;12.70;99.90;;;;;;4873140;29;20096;-63
2022/11/03 06:49:56;;;;;;;4.25;1.10;;;12.60;99.90;;;;;;4886864;29;20045;-61
2022/11/03 06:52:24;;;;;;;5.13;1.48;;;12.40;99.90;;;;;;4859297;29;20072;-61
2022/11/03 06:55:06;;;;;;;7.83;1.90;;;12.20;99.90;;;;;;4877271;29;20049;-60
2022/11/03 06:57:42;;;;;;;;;;;12.10;99.90;;;;;;4878961;29;20060;-61
2022/11/03 07:00:29;;;;;;;11.73;2.55;;;12.00;99.90;;;;;;4880004;29;19965;-61
2022/11/03 07:03:29;;;;;;;6.68;2.35;;;11.80;99.90;;;;;;4876765;29;20045;-61
2022/11/03 07:06:01;;;;;;;6.85;2.20;;;11.80;99.90;;;;;;4859992;29;20133;-60
2022/11/03 07:08:50;;;;;;;40.30;28.45;;;11.80;99.90;;;;;;4846138;29;20077;-60
2022/11/03 07:11:28;;;;;;;465.08;414.27;;;11.80;99.90;;;;;;4872002;29;20537;-61
2022/11/03 07:13:56;;;;;;;19.30;16.50;;;11.80;99.90;;;;;;4883776;29;20525;-63
2022/11/03 07:16:35;;;;;;;12.60;10.60;;;11.80;99.90;;;;;;4876382;29;20092;-61
2022/11/03 07:19:33;;;;;;;11.80;4.50;;;11.80;99.90;;;;;;4861206;29;20052;-61
2022/11/03 07:22:19;;;;;;;6.90;4.00;;;11.70;99.90;;;;;;4875589;29;20057;-60
2022/11/03 07:24:46;;;;;;;7.15;2.38;;;11.70;99.90;;;;;;4856625;29;20097;-62
2022/11/03 07:27:20;;;;;;;35.25;28.65;;;11.70;99.90;;;;;;4859854;29;20053;-60
2022/11/03 07:29:51;;;;;;;26.13;19.90;;;11.70;99.90;;;;;;4860427;29;20489;-59
2022/11/03 07:32:19;;;;;;;273.23;209.60;;;11.70;99.90;;;;;;4887183;29;20053;-61
2022/11/03 07:34:46;;;;;;;25.55;19.65;;;11.70;99.90;;;;;;4857953;29;20462;-58
2022/11/03 07:37:23;;;;;;;9.00;4.78;;;11.70;99.90;;;;;;4877594;29;20089;-61
2022/11/03 07:39:50;;;;;;;7.57;2.90;;;11.70;99.90;;;;;;4876452;29;20794;-60
2022/11/03 07:42:21;;;;;;;5.00;2.42;;;11.70;99.90;;;;;;4886313;29;20053;-60
2022/11/03 07:44:48;;;;;;;11.57;3.13;;;11.60;99.90;;;;;;4862803;29;20156;-60
2022/11/03 07:47:19;;;;;;;6.63;2.15;;;11.60;99.90;;;;;;4887190;29;20045;-59
2022/11/03 07:49:46;;;;;;;12.85;3.25;;;11.60;99.90;;;;;;4867234;29;20101;-61
2022/11/03 07:52:18;;;;;;;8.48;2.15;;;11.60;99.90;;;;;;4886485;29;20056;-63
2022/11/03 07:54:45;;;;;;;4.68;1.90;;;11.60;99.90;;;;;;4864936;29;20105;-61
2022/11/03 07:57:19;;;;;;;5.47;2.13;;;11.50;99.90;;;;;;4887849;29;20083;-62
2022/11/03 07:59:48;;;;;;;5.78;1.95;;;11.50;99.90;;;;;;4842188;29;20084;-62
2022/11/03 08:02:30;;;;;;;5.18;1.90;;;11.50;99.90;;;;;;4864011;29;20485;-62
2022/11/03 08:04:58;;;;;;;6.65;1.90;;;11.50;99.90;;;;;;4881331;29;20057;-61
2022/11/03 08:07:26;;;;;;;4.38;1.70;;;11.50;99.90;;;;;;4880306;29;20056;-64
2022/11/03 08:09:53;;;;;;;5.43;1.77;;;11.50;99.90;;;;;;4863387;29;20037;-63
2022/11/03 08:12:20;;;;;;;7.85;2.22;;;11.40;99.90;;;;;;4862707;29;20097;-64
2022/11/03 08:14:47;;;;;;;5.40;1.98;;;11.40;99.90;;;;;;4849172;29;20049;-62
2022/11/03 08:17:14;;;;;;;3.55;1.65;;;11.40;99.90;;;;;;4887153;29;20104;-62
2022/11/03 08:19:41;;;;;;;3.30;1.60;;;11.40;99.90;;;;;;4890001;29;20052;-62
2022/11/03 08:22:08;;;;;;;4.78;1.30;;;11.40;99.90;;;;;;4883534;29;20045;-62
2022/11/03 08:24:35;;;;;;;8.38;2.53;;;11.40;99.90;;;;;;4855214;29;20081;-62
2022/11/03 08:27:03;;;;;;;8.32;2.65;;;11.40;99.90;;;;;;4879435;29;20045;-59
2022/11/03 08:29:30;;;;;;;4.55;1.80;;;11.40;99.90;;;;;;4861762;29;20068;-62
2022/11/03 08:31:57;;;;;;;32.92;22.00;;;11.40;99.90;;;;;;4879714;29;20049;-60
2022/11/03 08:34:24;;;;;;;6.68;3.50;;;11.40;99.90;;;;;;4859059;29;20128;-61
2022/11/03 08:36:51;;;;;;;6.32;2.30;;;11.40;99.90;;;;;;4879815;29;20049;-61
2022/11/03 08:39:17;;;;;;;5.53;2.20;;;11.40;99.90;;;;;;4885882;29;20048;-61
2022/11/03 08:41:44;;;;;;;3.17;1.52;;;11.50;99.90;;;;;;4880318;29;20041;-60
2022/11/03 08:44:11;;;;;;;5.88;1.85;;;11.50;99.90;;;;;;4861957;29;20048;-60
2022/11/03 08:46:38;;;;;;;4.68;1.95;;;11.50;99.90;;;;;;4883146;29;20049;-60
2022/11/03 08:49:05;;;;;;;3.22;1.58;;;11.50;99.90;;;;;;4860178;29;20045;-62
2022/11/03 08:51:32;;;;;;;10.77;6.50;;;11.50;99.90;;;;;;4860065;29;20045;-57
2022/11/03 08:53:59;;;;;;;7.45;3.20;;;11.50;99.90;;;;;;4875114;29;20040;-59
2022/11/03 08:56:26;;;;;;;3.25;1.48;;;11.50;99.90;;;;;;4879454;29;20071;-60
2022/11/03 08:58:53;;;;;;;3.55;2.00;;;11.50;99.90;;;;;;4860063;29;20044;-59
2022/11/03 09:01:19;;;;;;;6.00;1.88;;;11.60;99.90;;;;;;4878406;29;20500;-62
2022/11/03 09:03:46;;;;;;;6.35;2.45;;;11.60;99.90;;;;;;4883245;29;20049;-59
2022/11/03 09:06:14;;;;;;;3.05;1.60;;;11.60;99.90;;;;;;4889431;29;20060;-61
2022/11/03 09:08:40;;;;;;;5.65;1.88;;;11.60;99.90;;;;;;4877683;29;20041;-60
2022/11/03 09:11:27;;;;;;;6.32;1.50;;;11.60;99.90;;;;;;4865379;29;20456;-58
2022/11/03 09:13:56;;;;;;;5.20;1.70;;;11.60;99.90;;;;;;4882952;29;20057;-57
2022/11/03 09:16:23;;;;;;;3.63;1.58;;;11.60;99.90;;;;;;4886483;29;20036;-59
2022/11/03 09:18:50;;;;;;;4.82;1.55;;;11.60;99.90;;;;;;4877526;29;20338;-60
2022/11/03 09:21:17;;;;;;;4.43;2.20;;;11.60;99.90;;;;;;4876946;29;20469;-56
2022/11/03 09:23:44;;;;;;;6.72;1.67;;;11.60;99.90;;;;;;4867921;29;20053;-60
2022/11/03 09:26:11;;;;;;;3.15;1.95;;;11.60;99.90;;;;;;4878215;29;20060;-60
2022/11/03 09:28:38;;;;;;;3.10;1.27;;;11.60;99.90;;;;;;4881074;29;20041;-58
2022/11/03 09:31:05;;;;;;;3.55;1.23;;;11.60;99.90;;;;;;4879023;29;20040;-60
2022/11/03 09:33:31;;;;;;;5.30;1.77;;;11.60;99.90;;;;;;4864953;29;20089;-59
2022/11/03 09:35:58;;;;;;;9.13;1.60;;;11.60;99.90;;;;;;4879423;29;20048;-59
2022/11/03 09:38:25;;;;;;;3.70;1.25;;;11.70;99.90;;;;;;4889301;29;20088;-58
2022/11/03 09:40:52;;;;;;;2.95;1.15;;;11.70;99.90;;;;;;4865166;29;20045;-59
2022/11/03 09:43:19;;;;;;;4.38;1.73;;;11.70;99.90;;;;;;4869574;29;20058;-61
2022/11/03 09:45:46;;;;;;;4.55;1.52;;;11.70;99.90;;;;;;4876701;29;20097;-59
2022/11/03 09:48:13;;;;;;;4.25;1.80;;;11.70;99.90;;;;;;4886509;29;20124;-59
2022/11/03 09:50:39;;;;;;;4.10;2.25;;;11.70;99.90;;;;;;4888598;29;20052;-59
2022/11/03 09:53:09;;;;;;;6.70;2.42;;;11.70;99.90;;;;;;4863346;29;20549;-59
2022/11/03 09:55:36;;;;;;;5.82;2.00;;;11.70;99.90;;;;;;4861718;29;20074;-59
2022/11/03 09:58:11;;;;;;;4.88;1.98;;;11.70;99.90;;;;;;4853639;29;20049;-62
2022/11/03 10:00:38;;;;;;;3.63;1.80;;;11.70;99.90;;;;;;4876885;29;20093;-60
2022/11/03 10:03:05;;;;;;;9.23;3.03;;;11.70;99.90;;;;;;4876466;29;20052;-60
2022/11/03 10:05:32;;;;;;;5.97;2.53;;;11.70;99.90;;;;;;4855366;29;20121;-59
2022/11/03 10:08:01;;;;;;;5.65;1.80;;;11.70;99.90;;;;;;4881415;29;20053;-59
2022/11/03 10:10:28;;;;;;;6.10;2.35;;;11.70;99.90;;;;;;4887385;29;20056;-62
2022/11/03 10:12:56;;;;;;;6.03;1.95;;;11.60;99.90;;;;;;4835572;29;20048;-60
2022/11/03 10:15:22;;;;;;;5.78;2.13;;;11.60;99.90;;;;;;4885305;29;20545;-60
2022/11/03 10:17:49;;;;;;;5.35;1.75;;;11.60;99.90;;;;;;4875421;29;20100;-60
2022/11/03 10:20:18;;;;;;;4.05;1.70;;;11.50;99.90;;;;;;4841179;29;20096;-60
2022/11/03 10:22:45;;;;;;;9.75;3.10;;;11.50;99.90;;;;;;4876481;29;20045;-59
2022/11/03 10:25:38;;;;;;;4.30;2.53;;;11.40;99.90;;;;;;4849322;29;20044;-59
2022/11/03 10:28:16;;;;;;;4.30;1.60;;;11.40;99.90;;;;;;4850001;29;20053;-59
2022/11/03 10:30:59;;;;;;;4.22;1.60;;;11.40;99.90;;;;;;4880189;29;20497;-60
2022/11/03 10:33:53;;;;;;;3.92;2.00;;;11.50;99.90;;;;;;4865097;29;20056;-59
2022/11/03 10:36:25;;;;;;;4.65;1.55;;;11.50;99.90;;;;;;4864394;29;20132;-59
2022/11/03 10:38:52;;;;;;;3.45;1.67;;;11.50;99.90;;;;;;4870989;29;20457;-60
2022/11/03 10:41:26;;;;;;;5.65;2.08;;;11.50;99.90;;;;;;4885132;29;20060;-59
2022/11/03 10:44:04;;;;;;;3.05;1.80;;;11.50;99.90;;;;;;4873674;29;20488;-59
2022/11/03 10:46:31;;;;;;;5.93;1.77;;;11.50;99.90;;;;;;4862926;29;20045;-59
2022/11/03 10:49:18;;;;;;;4.13;1.80;;;11.50;99.90;;;;;;4865032;29;20553;-60
2022/11/03 10:51:48;;;;;;;2.60;1.40;;;11.40;99.90;;;;;;4885235;29;20053;-59
2022/11/03 10:54:16;;;;;;;2.65;1.50;;;11.40;99.90;;;;;;4884448;29;20041;-59
2022/11/03 10:56:44;;;;;;;4.95;2.00;;;11.50;99.90;;;;;;4882892;29;20089;-59
2022/11/03 10:59:30;;;;;;;4.90;2.45;;;11.50;99.90;;;;;;4866550;29;20109;-59
2022/11/03 11:01:58;;;;;;;7.10;2.88;;;11.50;99.90;;;;;;4847408;29;20053;-61
2022/11/03 11:04:25;;;;;;;3.40;1.98;;;11.50;99.90;;;;;;4860925;29;20044;-61
2022/11/03 11:06:52;;;;;;;4.60;1.88;;;11.50;99.90;;;;;;4860089;29;20384;-65
2022/11/03 11:09:24;;;;;;;4.32;1.75;;;11.50;99.90;;;;;;4875721;29;20089;-61
2022/11/03 11:12:05;;;;;;;8.18;2.35;;;11.50;99.90;;;;;;4855514;29;20052;-61
2022/11/03 11:14:38;;;;;;;3.38;1.90;;;11.60;99.90;;;;;;4862613;29;20052;-61
2022/11/03 11:17:05;;;;;;;4.95;2.45;;;11.60;99.90;;;;;;4869450;29;20048;-60
2022/11/03 11:20:10;;;;;;;2.75;1.45;;;11.60;99.90;;;;;;4888163;29;20052;-61
2022/11/03 11:22:37;;;;;;;5.22;2.78;;;11.60;99.90;;;;;;4883465;29;20517;-63
2022/11/03 11:25:04;;;;;;;2.65;1.42;;;11.60;99.90;;;;;;4859736;29;20068;-60
2022/11/03 11:27:31;;;;;;;5.50;1.67;;;11.60;99.90;;;;;;4848912;29;20048;-60
2022/11/03 11:29:59;;;;;;;3.97;2.00;;;11.60;99.90;;;;;;4882118;29;20076;-60
2022/11/03 11:32:41;;;;;;;5.25;2.20;;;11.60;99.90;;;;;;4881223;29;20151;-61
2022/11/03 11:35:09;;;;;;;6.57;2.30;;;11.60;99.90;;;;;;4891215;29;20049;-62
2022/11/03 11:37:36;;;;;;;5.25;2.40;;;11.60;99.90;;;;;;4891223;29;20041;-60
2022/11/03 11:40:12;;;;;;;6.20;2.22;;;11.70;99.90;;;;;;4890950;29;21231;-61
2022/11/03 11:43:01;;;;;;;6.53;3.08;;;11.70;99.90;;;;;;4851798;29;20045;-60
2022/11/03 11:46:05;;;;;;;7.88;3.60;;;11.80;99.90;;;;;;4882120;29;20105;-61
2022/11/03 11:48:33;;;;;;;4.38;3.10;;;11.80;99.90;;;;;;4880893;29;20048;-60
2022/11/03 11:51:00;;;;;;;5.57;2.75;;;11.90;99.90;;;;;;4849859;29;20045;-60
2022/11/03 11:53:27;;;;;;;4.88;2.30;;;11.90;99.90;;;;;;4878406;29;20045;-60
2022/11/03 11:55:58;;;;;;;5.60;2.63;;;11.90;99.90;;;;;;4863569;29;20057;-60
2022/11/03 11:58:31;;;;;;;6.68;2.83;;;12.00;99.90;;;;;;4860284;29;20128;-61
2022/11/03 12:01:00;;;;;;;5.55;2.83;;;12.10;99.90;;;;;;4878933;29;20541;-61
2022/11/03 12:03:36;;;;;;;36.03;25.65;;;12.20;99.90;;;;;;4877858;29;20041;-58
2022/11/03 12:06:03;;;;;;;78.30;58.22;;;12.30;99.90;;;;;;4868194;29;20515;-62
2022/11/03 12:08:30;;;;;;;22.27;14.95;;;12.40;99.90;;;;;;4881768;29;20045;-62
2022/11/03 12:11:01;;;;;;;6.75;4.88;;;12.40;99.90;;;;;;4881760;29;20045;-61
2022/11/03 12:13:52;;;;;;;7.90;3.42;;;12.40;99.90;;;;;;4873744;29;20045;-61
2022/11/03 12:16:45;;;;;;;6.88;3.20;;;12.40;99.90;;;;;;4882003;29;20059;-67
2022/11/03 12:19:34;;;;;;;4.10;2.40;;;12.50;99.90;;;;;;4877168;29;20434;-62
2022/11/03 12:22:01;;;;;;;7.07;3.97;;;12.50;99.90;;;;;;4883383;29;20429;-61
2022/11/03 12:24:31;;;;;;;7.22;2.50;;;12.50;99.90;;;;;;4880294;29;20079;-62
2022/11/03 12:26:59;;;;;;;5.00;2.63;;;12.50;99.90;;;;;;4867376;29;20053;-63
2022/11/03 12:29:25;;;;;;;3.72;2.25;;;12.60;99.90;;;;;;4862176;29;20081;-62
2022/11/03 12:31:53;;;;;;;4.95;2.55;;;12.60;99.90;;;;;;4858476;29;20076;-63
2022/11/03 12:34:19;;;;;;;6.20;3.08;;;12.60;99.90;;;;;;4868089;29;20040;-64
2022/11/03 12:36:46;;;;;;;4.25;2.50;;;12.70;99.90;;;;;;4863969;29;20091;-63
2022/11/03 12:39:20;;;;;;;4.03;2.28;;;12.70;99.90;;;;;;4879574;29;20072;-63
2022/11/03 12:41:47;;;;;;;6.57;2.47;;;12.70;99.90;;;;;;4883708;29;20130;-64
2022/11/03 12:44:14;;;;;;;6.05;3.03;;;12.70;99.90;;;;;;4881851;29;20132;-61
2022/11/03 12:46:41;;;;;;;5.63;2.25;;;12.60;99.90;;;;;;4877874;29;20053;-62
2022/11/03 12:49:07;;;;;;;408.42;343.33;;;12.60;99.90;;;;;;4866155;29;20104;-63
2022/11/03 12:51:34;;;;;;;27.85;24.25;;;12.70;99.90;;;;;;4876183;29;20061;-56
2022/11/03 12:54:01;;;;;;;8.93;6.93;;;12.70;99.90;;;;;;4875978;29;20141;-61
2022/11/03 12:56:28;;;;;;;9.00;3.58;;;12.70;99.90;;;;;;4875908;29;20445;-60
2022/11/03 12:58:55;;;;;;;7.43;2.65;;;12.70;99.90;;;;;;4881218;29;20060;-59
2022/11/03 13:01:22;;;;;;;5.25;2.83;;;12.70;99.90;;;;;;4873727;29;20080;-66
2022/11/03 13:03:50;;;;;;;6.80;2.20;;;12.80;99.90;;;;;;4886672;29;20052;-59
2022/11/03 13:06:16;;;;;;;4.30;1.85;;;12.90;99.90;;;;;;4859057;29;20056;-61
2022/11/03 13:08:44;;;;;;;5.00;2.58;;;12.90;99.90;;;;;;4877299;29;20433;-60
2022/11/03 13:14:03;;;;;;;3.72;2.00;;;12.90;99.90;;;;;;4874586;29;20089;-60
2022/11/03 13:16:30;;;;;;;3.40;1.70;;;12.80;99.90;;;;;;4856903;29;20045;-61
2022/11/03 13:18:57;;;;;;;7.22;2.03;;;12.80;99.90;;;;;;4876268;29;20113;-60
2022/11/03 13:21:24;;;;;;;4.15;2.05;;;12.90;99.90;;;;;;4875870;29;20056;-58
2022/11/03 13:23:52;;;;;;;3.25;1.98;;;12.80;99.90;;;;;;4859309;29;20041;-59